Главная страница
METAR-TAF:

METAR-TAF

Аэропорты :

Кувейт, Кувейт

широта: 29-13N, долгота: 047-59E, высота над уровнем моря: 55 м

Текущие метеонаблюдения

Эта сводка был подготовлена 58 минут назад, в 11:00 UTC
Ветер 21 Узел от северный
Температура 43°C
Влажность 12%
Давление 1003 hPa
Видимость: 2000 м
ясное небо
(Сильный) , пыль, взвешенная над обширной территорией

METAR: OKBK 211100Z 36021KT 2000 +BLDU SKC 43/07 Q1003 NOSIG

Время: 14:58 (11:58 UTC)

Прогноз

Эта сводка был подготовлена 1 час и 13 минут назад, в 10:45 UTC
Прогноз действительный с 21-го 12 UTC до 22-го 18 UTC
Ветер 15 Узел от северно-северо-западный с порывами до 25 Узел
Видимость: 6000 м
ясное небо
временами
С 21-го 12 UTC до 21-го 16 UTC
Видимость: 1500 м
Низовая пыльная метель

TAF: OKBK 211045Z 2112/2218 34015G25KT 6000 SKC TEMPO 2112/2116 1500 BLDU

Метеонаблюдения и прогнозы для более 4000 аэропортов (сводки METAR и TAF).

Имеющиеся станции представлены на карте желтыми и красными точками.

Чтобы увидеть название станции, наведите на нее мышь.

Затем щелкните, чтобы увидеть метеонаблюдения и метеопрогнозы.

Управление картой: чтобы увеличить масштаб, щелкните зеленые кнопки с черным крестиком; чтобы уменьшить масштаб, щелкните зеленую кнопку с тире; для просмотра соседних карт щелкайте зеленые стрелки.


METAR-TAF: